sensor_id;sensor_type;location;lat;lon;timestamp;pressure;altitude;pressure_sealevel;temperature;humidity
56402;BME280;42299;35.160;26.100;2023-04-01T00:00:24;101333.00;;;12.26;100.00
56402;BME280;42299;35.160;26.100;2023-04-01T00:01:45;101328.59;;;12.27;100.00
56402;BME280;42299;35.160;26.100;2023-04-01T00:03:09;101327.72;;;12.26;100.00
56402;BME280;42299;35.160;26.100;2023-04-01T00:04:31;101328.59;;;12.27;100.00
56402;BME280;42299;35.160;26.100;2023-04-01T00:05:53;101332.09;;;12.26;100.00
56402;BME280;42299;35.160;26.100;2023-04-01T00:07:14;101329.44;;;12.24;100.00
56402;BME280;42299;35.160;26.100;2023-04-01T00:08:37;101326.78;;;12.24;100.00
56402;BME280;42299;35.160;26.100;2023-04-01T00:09:58;101325.03;;;12.25;100.00
56402;BME280;42299;35.160;26.100;2023-04-01T00:11:20;101318.84;;;12.24;100.00
56402;BME280;42299;35.160;26.100;2023-04-01T00:12:42;101322.41;;;12.26;100.00
56402;BME280;42299;35.160;26.100;2023-04-01T00:14:05;101326.81;;;12.27;100.00
56402;BME280;42299;35.160;26.100;2023-04-01T00:15:27;101316.31;;;12.30;100.00
56402;BME280;42299;35.160;26.100;2023-04-01T00:16:48;101318.13;;;12.33;100.00
56402;BME280;42299;35.160;26.100;2023-04-01T00:18:13;101312.84;;;12.36;100.00
56402;BME280;42299;35.160;26.100;2023-04-01T00:19:34;101307.63;;;12.39;100.00
56402;BME280;42299;35.160;26.100;2023-04-01T00:20:57;101304.16;;;12.43;100.00
56402;BME280;42299;35.160;26.100;2023-04-01T00:22:18;101313.00;;;12.44;100.00
56402;BME280;42299;35.160;26.100;2023-04-01T00:23:41;101313.06;;;12.47;100.00
56402;BME280;42299;35.160;26.100;2023-04-01T00:25:03;101302.47;;;12.48;100.00
56402;BME280;42299;35.160;26.100;2023-04-01T00:26:26;101306.91;;;12.49;100.00
56402;BME280;42299;35.160;26.100;2023-04-01T00:27:48;101303.41;;;12.50;100.00
56402;BME280;42299;35.160;26.100;2023-04-01T00:29:10;101303.41;;;12.50;100.00
56402;BME280;42299;35.160;26.100;2023-04-01T00:30:33;101302.53;;;12.51;100.00
56402;BME280;42299;35.160;26.100;2023-04-01T00:31:56;101300.81;;;12.53;100.00
56402;BME280;42299;35.160;26.100;2023-04-01T00:33:20;101298.19;;;12.56;100.00
56402;BME280;42299;35.160;26.100;2023-04-01T00:34:43;101303.53;;;12.58;100.00
56402;BME280;42299;35.160;26.100;2023-04-01T00:36:06;101302.66;;;12.60;100.00
56402;BME280;42299;35.160;26.100;2023-04-01T00:37:30;101306.25;;;12.62;100.00
56402;BME280;42299;35.160;26.100;2023-04-01T00:38:51;101308.03;;;12.63;100.00
56402;BME280;42299;35.160;26.100;2023-04-01T00:40:24;101305.38;;;12.63;100.00
56402;BME280;42299;35.160;26.100;2023-04-01T00:41:45;101307.16;;;12.64;100.00
56402;BME280;42299;35.160;26.100;2023-04-01T00:43:13;101294.78;;;12.63;100.00
56402;BME280;42299;35.160;26.100;2023-04-01T00:44:36;101301.81;;;12.61;100.00
56402;BME280;42299;35.160;26.100;2023-04-01T00:45:59;101294.72;;;12.60;100.00
56402;BME280;42299;35.160;26.100;2023-04-01T00:47:22;101290.31;;;12.59;100.00
56402;BME280;42299;35.160;26.100;2023-04-01T00:48:50;101291.22;;;12.60;100.00
56402;BME280;42299;35.160;26.100;2023-04-01T00:50:13;101296.44;;;12.57;100.00
56402;BME280;42299;35.160;26.100;2023-04-01T00:51:34;101282.31;;;12.56;100.00
56402;BME280;42299;35.160;26.100;2023-04-01T00:53:00;101279.66;;;12.56;100.00
56402;BME280;42299;35.160;26.100;2023-04-01T00:54:25;101285.00;;;12.58;100.00
56402;BME280;42299;35.160;26.100;2023-04-01T00:55:53;101286.78;;;12.59;100.00
56402;BME280;42299;35.160;26.100;2023-04-01T00:57:19;101281.47;;;12.60;100.00
56402;BME280;42299;35.160;26.100;2023-04-01T00:58:45;101277.06;;;12.61;100.00
56402;BME280;42299;35.160;26.100;2023-04-01T01:00:11;101278.88;;;12.63;100.00
56402;BME280;42299;35.160;26.100;2023-04-01T01:01:36;101279.78;;;12.64;100.00
56402;BME280;42299;35.160;26.100;2023-04-01T01:02:58;101279.78;;;12.64;100.00
56402;BME280;42299;35.160;26.100;2023-04-01T01:04:25;101270.97;;;12.65;100.00
56402;BME280;42299;35.160;26.100;2023-04-01T01:06:10;101272.72;;;12.64;100.00
56402;BME280;42299;35.160;26.100;2023-04-01T01:07:37;101271.84;;;12.64;100.00
56402;BME280;42299;35.160;26.100;2023-04-01T01:09:14;101266.50;;;12.62;100.00
56402;BME280;42299;35.160;26.100;2023-04-01T01:10:40;101267.38;;;12.61;100.00
56402;BME280;42299;35.160;26.100;2023-04-01T01:12:07;101262.06;;;12.61;100.00
56402;BME280;42299;35.160;26.100;2023-04-01T01:13:37;101264.72;;;12.61;100.00
56402;BME280;42299;35.160;26.100;2023-04-01T01:15:10;101272.66;;;12.61;100.00
56402;BME280;42299;35.160;26.100;2023-04-01T01:16:36;101266.47;;;12.61;100.00
56402;BME280;42299;35.160;26.100;2023-04-01T01:18:05;101257.66;;;12.62;100.00
56402;BME280;42299;35.160;26.100;2023-04-01T01:21:26;101269.13;;;12.61;100.00
56402;BME280;42299;35.160;26.100;2023-04-01T01:24:57;101265.47;;;12.51;100.00
56402;BME280;42299;35.160;26.100;2023-04-01T01:26:40;101277.75;;;12.48;100.00
56402;BME280;42299;35.160;26.100;2023-04-01T01:28:17;101275.00;;;12.42;100.00
56402;BME280;42299;35.160;26.100;2023-04-01T01:29:58;101285.56;;;12.38;100.00
56402;BME280;42299;35.160;26.100;2023-04-01T01:31:23;101276.66;;;12.35;100.00
56402;BME280;42299;35.160;26.100;2023-04-01T01:33:17;101273.09;;;12.31;100.00
56402;BME280;42299;35.160;26.100;2023-04-01T01:34:49;101267.72;;;12.28;100.00
56402;BME280;42299;35.160;26.100;2023-04-01T01:36:17;101265.06;;;12.27;100.00
56402;BME280;42299;35.160;26.100;2023-04-01T01:37:43;101267.66;;;12.24;100.00
56402;BME280;42299;35.160;26.100;2023-04-01T01:39:07;101262.31;;;12.22;100.00
56402;BME280;42299;35.160;26.100;2023-04-01T01:40:33;101269.38;;;12.20;100.00
56402;BME280;42299;35.160;26.100;2023-04-01T01:41:58;101266.69;;;12.19;100.00
56402;BME280;42299;35.160;26.100;2023-04-01T01:43:25;101270.22;;;12.19;100.00
56402;BME280;42299;35.160;26.100;2023-04-01T01:44:48;101272.03;;;12.20;100.00
56402;BME280;42299;35.160;26.100;2023-04-01T01:46:14;101279.13;;;12.24;100.00
56402;BME280;42299;35.160;26.100;2023-04-01T01:47:40;101285.34;;;12.28;100.00
56402;BME280;42299;35.160;26.100;2023-04-01T01:49:04;101288.97;;;12.31;100.00
56402;BME280;42299;35.160;26.100;2023-04-01T01:50:29;101276.38;;;12.18;100.00
56402;BME280;42299;35.160;26.100;2023-04-01T01:51:52;101276.22;;;12.08;100.00
56402;BME280;42299;35.160;26.100;2023-04-01T01:53:15;101282.22;;;11.99;100.00
56402;BME280;42299;35.160;26.100;2023-04-01T01:54:47;101275.97;;;11.94;100.00
56402;BME280;42299;35.160;26.100;2023-04-01T01:56:10;101276.78;;;11.91;100.00
56402;BME280;42299;35.160;26.100;2023-04-01T01:57:38;101276.72;;;11.88;100.00
56402;BME280;42299;35.160;26.100;2023-04-01T01:59:08;101270.59;;;11.91;100.00
56402;BME280;42299;35.160;26.100;2023-04-01T02:00:33;101274.22;;;11.94;100.00
56402;BME280;42299;35.160;26.100;2023-04-01T02:01:56;101268.94;;;11.97;100.00
56402;BME280;42299;35.160;26.100;2023-04-01T02:03:22;101265.50;;;12.00;100.00
56402;BME280;42299;35.160;26.100;2023-04-01T02:04:46;101263.72;;;12.02;100.00
56402;BME280;42299;35.160;26.100;2023-04-01T02:06:11;101261.19;;;12.07;100.00
56402;BME280;42299;35.160;26.100;2023-04-01T02:07:39;101259.44;;;12.09;100.00
56402;BME280;42299;35.160;26.100;2023-04-01T02:09:05;101255.97;;;12.11;100.00
56402;BME280;42299;35.160;26.100;2023-04-01T02:10:35;101270.19;;;12.18;100.00
56402;BME280;42299;35.160;26.100;2023-04-01T02:11:58;101267.59;;;12.21;100.00
56402;BME280;42299;35.160;26.100;2023-04-01T02:13:27;101261.50;;;12.25;100.00
56402;BME280;42299;35.160;26.100;2023-04-01T02:14:53;101270.41;;;12.30;100.00
56402;BME280;42299;35.160;26.100;2023-04-01T02:16:21;101266.03;;;12.32;100.00
56402;BME280;42299;35.160;26.100;2023-04-01T02:17:49;101263.38;;;12.32;100.00
56402;BME280;42299;35.160;26.100;2023-04-01T02:19:13;101268.72;;;12.33;100.00
56402;BME280;42299;35.160;26.100;2023-04-01T02:20:44;101263.44;;;12.36;100.00
56402;BME280;42299;35.160;26.100;2023-04-01T02:22:10;101258.25;;;12.43;100.00
56402;BME280;42299;35.160;26.100;2023-04-01T02:23:36;101255.66;;;12.47;100.00
56402;BME280;42299;35.160;26.100;2023-04-01T02:25:03;101253.09;;;12.50;100.00
56402;BME280;42299;35.160;26.100;2023-04-01T02:26:26;101256.66;;;12.52;100.00
56402;BME280;42299;35.160;26.100;2023-04-01T02:27:49;101250.56;;;12.58;100.00
56402;BME280;42299;35.160;26.100;2023-04-01T02:29:11;101247.94;;;12.59;100.00
56402;BME280;42299;35.160;26.100;2023-04-01T02:30:35;101247.97;;;12.62;100.00
56402;BME280;42299;35.160;26.100;2023-04-01T02:31:58;101255.06;;;12.63;100.00
56402;BME280;42299;35.160;26.100;2023-04-01T02:33:21;101249.75;;;12.63;100.00
56402;BME280;42299;35.160;26.100;2023-04-01T02:34:44;101246.22;;;12.63;100.00
56402;BME280;42299;35.160;26.100;2023-04-01T02:36:11;101249.69;;;12.60;100.00
56402;BME280;42299;35.160;26.100;2023-04-01T02:37:33;101255.00;;;12.60;100.00
56402;BME280;42299;35.160;26.100;2023-04-01T02:38:58;101250.56;;;12.58;100.00
56402;BME280;42299;35.160;26.100;2023-04-01T02:40:22;101253.16;;;12.53;100.00
56402;BME280;42299;35.160;26.100;2023-04-01T02:41:46;101256.59;;;12.49;100.00
56402;BME280;42299;35.160;26.100;2023-04-01T02:43:07;101260.00;;;12.42;100.00
56402;BME280;42299;35.160;26.100;2023-04-01T02:44:30;101256.41;;;12.37;100.00
56402;BME280;42299;35.160;26.100;2023-04-01T02:45:53;101253.69;;;12.34;100.00
56402;BME280;42299;35.160;26.100;2023-04-01T02:47:14;101246.53;;;12.28;100.00
56402;BME280;42299;35.160;26.100;2023-04-01T02:48:36;101237.69;;;12.25;100.00
56402;BME280;42299;35.160;26.100;2023-04-01T02:49:59;101243.75;;;12.21;100.00
56402;BME280;42299;35.160;26.100;2023-04-01T02:51:20;101237.59;;;12.20;100.00
56402;BME280;42299;35.160;26.100;2023-04-01T02:52:43;101238.47;;;12.21;100.00
56402;BME280;42299;35.160;26.100;2023-04-01T02:54:06;101239.38;;;12.21;100.00
56402;BME280;42299;35.160;26.100;2023-04-01T02:55:28;101239.38;;;12.21;100.00
56402;BME280;42299;35.160;26.100;2023-04-01T02:56:50;101239.38;;;12.21;100.00
56402;BME280;42299;35.160;26.100;2023-04-01T02:58:13;101242.94;;;12.23;100.00
56402;BME280;42299;35.160;26.100;2023-04-01T02:59:36;101247.34;;;12.23;100.00
56402;BME280;42299;35.160;26.100;2023-04-01T03:00:57;101247.34;;;12.23;100.00
56402;BME280;42299;35.160;26.100;2023-04-01T03:02:19;101246.53;;;12.27;100.00
56402;BME280;42299;35.160;26.100;2023-04-01T03:03:42;101248.41;;;12.32;100.00
56402;BME280;42299;35.160;26.100;2023-04-01T03:05:05;101254.66;;;12.37;100.00
56402;BME280;42299;35.160;26.100;2023-04-01T03:06:27;101250.28;;;12.40;100.00
56402;BME280;42299;35.160;26.100;2023-04-01T03:07:50;101251.16;;;12.40;100.00
56402;BME280;42299;35.160;26.100;2023-04-01T03:09:13;101240.59;;;12.43;100.00
56402;BME280;42299;35.160;26.100;2023-04-01T03:10:36;101235.31;;;12.43;100.00
56402;BME280;42299;35.160;26.100;2023-04-01T03:11:58;101239.72;;;12.43;100.00
56402;BME280;42299;35.160;26.100;2023-04-01T03:13:22;101234.41;;;12.43;100.00
56402;BME280;42299;35.160;26.100;2023-04-01T03:14:45;101236.19;;;12.42;100.00
56402;BME280;42299;35.160;26.100;2023-04-01T03:16:07;101236.16;;;12.39;100.00
56402;BME280;42299;35.160;26.100;2023-04-01T03:17:30;101244.91;;;12.36;100.00
56402;BME280;42299;35.160;26.100;2023-04-01T03:18:51;101243.94;;;12.30;100.00
56402;BME280;42299;35.160;26.100;2023-04-01T03:20:16;101241.25;;;12.27;100.00
56402;BME280;42299;35.160;26.100;2023-04-01T03:21:38;101238.50;;;12.22;100.00
56402;BME280;42299;35.160;26.100;2023-04-01T03:23:00;101235.81;;;12.19;100.00
56402;BME280;42299;35.160;26.100;2023-04-01T03:24:25;101241.94;;;12.17;100.00
56402;BME280;42299;35.160;26.100;2023-04-01T03:25:47;101244.56;;;12.15;100.00
56402;BME280;42299;35.160;26.100;2023-04-01T03:27:10;101247.19;;;12.14;100.00
56402;BME280;42299;35.160;26.100;2023-04-01T03:28:31;101243.66;;;12.13;100.00
56402;BME280;42299;35.160;26.100;2023-04-01T03:29:54;101252.50;;;12.14;100.00
56402;BME280;42299;35.160;26.100;2023-04-01T03:31:15;101247.19;;;12.14;100.00
56402;BME280;42299;35.160;26.100;2023-04-01T03:32:43;101241.91;;;12.15;100.00
56402;BME280;42299;35.160;26.100;2023-04-01T03:34:05;101243.72;;;12.18;100.00
56402;BME280;42299;35.160;26.100;2023-04-01T03:35:27;101242.91;;;12.20;100.00
56402;BME280;42299;35.160;26.100;2023-04-01T03:36:51;101240.25;;;12.22;100.00
56402;BME280;42299;35.160;26.100;2023-04-01T03:38:13;101235.84;;;12.22;100.00
56402;BME280;42299;35.160;26.100;2023-04-01T03:39:39;101234.97;;;12.22;100.00
56402;BME280;42299;35.160;26.100;2023-04-01T03:41:00;101234.09;;;12.23;100.00
56402;BME280;42299;35.160;26.100;2023-04-01T03:42:24;101239.41;;;12.23;100.00
56402;BME280;42299;35.160;26.100;2023-04-01T03:43:45;101239.41;;;12.23;100.00
56402;BME280;42299;35.160;26.100;2023-04-01T03:45:08;101241.19;;;12.24;100.00
56402;BME280;42299;35.160;26.100;2023-04-01T03:46:32;101238.59;;;12.27;100.00
56402;BME280;42299;35.160;26.100;2023-04-01T03:47:54;101239.47;;;12.27;100.00
56402;BME280;42299;35.160;26.100;2023-04-01T03:49:16;101244.81;;;12.30;100.00
56402;BME280;42299;35.160;26.100;2023-04-01T03:50:38;101241.25;;;12.28;100.00
56402;BME280;42299;35.160;26.100;2023-04-01T03:52:01;101242.84;;;12.17;100.00
56402;BME280;42299;35.160;26.100;2023-04-01T03:53:24;101243.31;;;11.93;100.00
56402;BME280;42299;35.160;26.100;2023-04-01T03:54:51;101242.09;;;11.75;100.00
56402;BME280;42299;35.160;26.100;2023-04-01T03:56:14;101239.19;;;11.64;100.00
56402;BME280;42299;35.160;26.100;2023-04-01T03:57:35;101242.69;;;11.62;100.00
56402;BME280;42299;35.160;26.100;2023-04-01T03:59:08;101238.31;;;11.64;100.00
56402;BME280;42299;35.160;26.100;2023-04-01T04:00:30;101235.81;;;11.71;100.00
56402;BME280;42299;35.160;26.100;2023-04-01T04:01:52;101241.31;;;11.82;100.00
56402;BME280;42299;35.160;26.100;2023-04-01T04:03:14;101246.81;;;11.92;100.00
56402;BME280;42299;35.160;26.100;2023-04-01T04:04:37;101249.63;;;12.00;100.00
56402;BME280;42299;35.160;26.100;2023-04-01T04:05:58;101248.78;;;12.04;100.00
56402;BME280;42299;35.160;26.100;2023-04-01T04:07:21;101247.06;;;12.06;100.00
56402;BME280;42299;35.160;26.100;2023-04-01T04:09:02;101258.53;;;12.08;100.00
56402;BME280;42299;35.160;26.100;2023-04-01T04:10:26;101255.94;;;12.10;100.00
56402;BME280;42299;35.160;26.100;2023-04-01T04:11:50;101254.25;;;12.13;100.00
56402;BME280;42299;35.160;26.100;2023-04-01T04:13:11;101249.84;;;12.14;100.00
56402;BME280;42299;35.160;26.100;2023-04-01T04:14:39;101257.88;;;12.20;100.00
56402;BME280;42299;35.160;26.100;2023-04-01T04:16:02;101267.69;;;12.25;100.00
56402;BME280;42299;35.160;26.100;2023-04-01T04:17:24;101263.31;;;12.29;100.00
56402;BME280;42299;35.160;26.100;2023-04-01T04:18:47;101266.03;;;12.32;100.00
56402;BME280;42299;35.160;26.100;2023-04-01T04:20:09;101261.63;;;12.34;100.00
56402;BME280;42299;35.160;26.100;2023-04-01T04:21:31;101256.41;;;12.37;100.00
56402;BME280;42299;35.160;26.100;2023-04-01T04:22:54;101264.41;;;12.42;100.00
56402;BME280;42299;35.160;26.100;2023-04-01T04:24:16;101250.41;;;12.49;100.00
56402;BME280;42299;35.160;26.100;2023-04-01T04:26:04;101258.53;;;12.59;100.00
56402;BME280;42299;35.160;26.100;2023-04-01T04:27:26;101256.88;;;12.67;100.00
56402;BME280;42299;35.160;26.100;2023-04-01T04:28:57;101260.53;;;12.75;100.00
56402;BME280;42299;35.160;26.100;2023-04-01T04:30:20;101262.47;;;12.86;100.00
56402;BME280;42299;35.160;26.100;2023-04-01T04:31:43;101263.47;;;12.95;100.00
56402;BME280;42299;35.160;26.100;2023-04-01T04:33:06;101254.78;;;13.05;100.00
56402;BME280;42299;35.160;26.100;2023-04-01T04:34:29;101255.81;;;13.15;100.00
56402;BME280;42299;35.160;26.100;2023-04-01T04:35:55;101253.31;;;13.26;100.00
56402;BME280;42299;35.160;26.100;2023-04-01T04:37:18;101253.41;;;13.35;100.00
56402;BME280;42299;35.160;26.100;2023-04-01T04:38:41;101244.69;;;13.46;100.00
56402;BME280;42299;35.160;26.100;2023-04-01T04:40:04;101256.31;;;13.56;100.00
56402;BME280;42299;35.160;26.100;2023-04-01T04:41:28;101250.22;;;13.66;100.00
56402;BME280;42299;35.160;26.100;2023-04-01T04:42:50;101249.44;;;13.72;100.00
56402;BME280;42299;35.160;26.100;2023-04-01T04:44:12;101245.91;;;13.76;100.00
56402;BME280;42299;35.160;26.100;2023-04-01T04:45:34;101243.31;;;13.80;100.00
56402;BME280;42299;35.160;26.100;2023-04-01T04:46:57;101232.72;;;13.83;100.00
56402;BME280;42299;35.160;26.100;2023-04-01T04:48:20;101238.94;;;13.87;100.00
56402;BME280;42299;35.160;26.100;2023-04-01T04:49:41;101242.53;;;13.90;100.00
56402;BME280;42299;35.160;26.100;2023-04-01T04:51:04;101240.81;;;13.95;100.00
56402;BME280;42299;35.160;26.100;2023-04-01T04:52:26;101245.31;;;14.03;100.00
56402;BME280;42299;35.160;26.100;2023-04-01T04:53:48;101254.19;;;14.08;100.00
56402;BME280;42299;35.160;26.100;2023-04-01T04:55:11;101250.72;;;14.15;100.00
56402;BME280;42299;35.160;26.100;2023-04-01T04:56:37;101243.72;;;14.23;100.00
56402;BME280;42299;35.160;26.100;2023-04-01T04:58:02;101251.75;;;14.30;100.00
56402;BME280;42299;35.160;26.100;2023-04-01T04:59:24;101245.66;;;14.41;100.00
56402;BME280;42299;35.160;26.100;2023-04-01T05:01:15;101242.22;;;14.54;100.00
56402;BME280;42299;35.160;26.100;2023-04-01T05:02:38;101242.28;;;14.66;100.00
56402;BME280;42299;35.160;26.100;2023-04-01T05:04:01;101249.44;;;14.77;100.00
56402;BME280;42299;35.160;26.100;2023-04-01T05:05:24;101256.63;;;14.88;100.00
56402;BME280;42299;35.160;26.100;2023-04-01T05:06:45;101253.13;;;14.95;100.00
56402;BME280;42299;35.160;26.100;2023-04-01T05:08:08;101245.16;;;14.99;100.00
56402;BME280;42299;35.160;26.100;2023-04-01T05:09:31;101249.56;;;14.96;100.00
56402;BME280;42299;35.160;26.100;2023-04-01T05:10:53;101241.56;;;14.93;100.00
56402;BME280;42299;35.160;26.100;2023-04-01T05:12:17;101244.22;;;14.88;100.00
56402;BME280;42299;35.160;26.100;2023-04-01T05:13:54;101241.53;;;14.82;100.00
56402;BME280;42299;35.160;26.100;2023-04-01T05:15:17;101237.06;;;14.78;100.00
56402;BME280;42299;35.160;26.100;2023-04-01T05:16:38;101234.38;;;14.73;100.00
56402;BME280;42299;35.160;26.100;2023-04-01T05:18:01;101244.97;;;14.67;100.00
56402;BME280;42299;35.160;26.100;2023-04-01T05:19:23;101245.81;;;14.65;100.00
56402;BME280;42299;35.160;26.100;2023-04-01T05:20:47;101236.06;;;14.61;100.00
56402;BME280;42299;35.160;26.100;2023-04-01T05:22:10;101237.81;;;14.59;100.00
56402;BME280;42299;35.160;26.100;2023-04-01T05:23:32;101233.38;;;14.56;100.00
56402;BME280;42299;35.160;26.100;2023-04-01T05:24:55;101241.34;;;14.58;100.00
56402;BME280;42299;35.160;26.100;2023-04-01T05:26:18;101243.16;;;14.65;100.00
56402;BME280;42299;35.160;26.100;2023-04-01T05:27:42;101241.47;;;14.77;100.00
56402;BME280;42299;35.160;26.100;2023-04-01T05:29:04;101236.25;;;14.93;100.00
56402;BME280;42299;35.160;26.100;2023-04-01T05:30:27;101237.22;;;15.07;100.00
56402;BME280;42299;35.160;26.100;2023-04-01T05:32:00;101236.41;;;15.25;100.00
56402;BME280;42299;35.160;26.100;2023-04-01T05:33:23;101235.59;;;15.39;100.00
56402;BME280;42299;35.160;26.100;2023-04-01T05:34:45;101237.44;;;15.52;100.00
56402;BME280;42299;35.160;26.100;2023-04-01T05:36:09;101229.50;;;15.66;100.00
56402;BME280;42299;35.160;26.100;2023-04-01T05:37:33;101237.50;;;15.81;100.00
56402;BME280;42299;35.160;26.100;2023-04-01T05:38:55;101233.09;;;15.94;100.00
56402;BME280;42299;35.160;26.100;2023-04-01T05:40:22;101244.63;;;16.08;100.00
56402;BME280;42299;35.160;26.100;2023-04-01T05:41:46;101239.31;;;16.20;100.00
56402;BME280;42299;35.160;26.100;2023-04-01T05:43:11;101234.00;;;16.32;100.00
56402;BME280;42299;35.160;26.100;2023-04-01T05:44:35;101233.09;;;16.44;100.00
56402;BME280;42299;35.160;26.100;2023-04-01T05:45:58;101241.97;;;16.54;100.00
56402;BME280;42299;35.160;26.100;2023-04-01T05:47:46;101239.31;;;16.67;100.00
56402;BME280;42299;35.160;26.100;2023-04-01T05:49:09;101246.38;;;16.81;100.00
56402;BME280;42299;35.160;26.100;2023-04-01T05:50:32;101243.72;;;16.87;100.00
56402;BME280;42299;35.160;26.100;2023-04-01T05:51:53;101244.56;;;16.95;100.00
56402;BME280;42299;35.160;26.100;2023-04-01T05:53:16;101241.00;;;17.06;100.00
56402;BME280;42299;35.160;26.100;2023-04-01T05:54:38;101232.94;;;17.14;100.00
56402;BME280;42299;35.160;26.100;2023-04-01T05:56:04;101242.72;;;17.23;100.00
56402;BME280;42299;35.160;26.100;2023-04-01T05:57:32;101227.56;;;17.32;100.00
56402;BME280;42299;35.160;26.100;2023-04-01T05:58:55;101228.38;;;17.43;100.00
56402;BME280;42299;35.160;26.100;2023-04-01T06:00:19;101221.19;;;17.53;100.00
56402;BME280;42299;35.160;26.100;2023-04-01T06:01:42;101222.09;;;17.63;100.00
56402;BME280;42299;35.160;26.100;2023-04-01T06:03:05;101229.13;;;17.73;100.00
56402;BME280;42299;35.160;26.100;2023-04-01T06:04:34;101222.84;;;17.81;100.00
56402;BME280;42299;35.160;26.100;2023-04-01T06:05:59;101223.69;;;17.88;100.00
56402;BME280;42299;35.160;26.100;2023-04-01T06:07:22;101220.09;;;17.93;100.00
56402;BME280;42299;35.160;26.100;2023-04-01T06:08:44;101226.28;;;18.00;100.00
56402;BME280;42299;35.160;26.100;2023-04-01T06:10:12;101226.22;;;18.09;100.00
56402;BME280;42299;35.160;26.100;2023-04-01T06:11:38;101219.03;;;18.16;100.00
56402;BME280;42299;35.160;26.100;2023-04-01T06:13:07;101233.25;;;18.22;100.00
56402;BME280;42299;35.160;26.100;2023-04-01T06:14:40;101235.81;;;18.35;100.00
56402;BME280;42299;35.160;26.100;2023-04-01T06:16:11;101231.28;;;18.44;100.00
56402;BME280;42299;35.160;26.100;2023-04-01T06:17:48;101237.41;;;18.52;100.00
56402;BME280;42299;35.160;26.100;2023-04-01T06:19:24;101231.13;;;18.64;100.00
56402;BME280;42299;35.160;26.100;2023-04-01T06:20:54;101213.19;;;18.74;100.00
56402;BME280;42299;35.160;26.100;2023-04-01T06:22:35;101234.50;;;18.83;100.00
56402;BME280;42299;35.160;26.100;2023-04-01T06:24:08;101229.97;;;18.89;100.00
56402;BME280;42299;35.160;26.100;2023-04-01T06:25:53;101224.53;;;18.97;100.00
56402;BME280;42299;35.160;26.100;2023-04-01T06:27:38;101228.03;;;19.00;100.00
56402;BME280;42299;35.160;26.100;2023-04-01T06:30:58;101237.75;;;19.09;100.00
56402;BME280;42299;35.160;26.100;2023-04-01T06:32:45;101223.41;;;19.16;100.00
56402;BME280;42299;35.160;26.100;2023-04-01T06:34:34;101226.91;;;19.23;100.00
56402;BME280;42299;35.160;26.100;2023-04-01T06:36:21;101221.38;;;19.33;100.00
56402;BME280;42299;35.160;26.100;2023-04-01T06:38:02;101223.09;;;19.37;100.00
56402;BME280;42299;35.160;26.100;2023-04-01T06:39:42;101229.34;;;19.39;100.00
56402;BME280;42299;35.160;26.100;2023-04-01T06:43:17;101215.97;;;19.38;100.00
56402;BME280;42299;35.160;26.100;2023-04-01T06:45:31;101222.16;;;19.46;100.00
56402;BME280;42299;35.160;26.100;2023-04-01T06:47:26;101216.69;;;19.54;100.00
56402;BME280;42299;35.160;26.100;2023-04-01T06:49:25;101210.31;;;19.62;100.00
56402;BME280;42299;35.160;26.100;2023-04-01T06:51:19;101204.88;;;19.68;100.00
56402;BME280;42299;35.160;26.100;2023-04-01T06:53:10;101203.88;;;19.75;100.00
56402;BME280;42299;35.160;26.100;2023-04-01T06:54:56;101211.75;;;19.86;100.00
56402;BME280;42299;35.160;26.100;2023-04-01T06:56:44;101214.31;;;19.94;100.00
56402;BME280;42299;35.160;26.100;2023-04-01T06:58:20;101215.94;;;20.02;100.00
56402;BME280;42299;35.160;26.100;2023-04-01T06:59:43;101210.47;;;20.10;100.00
56402;BME280;42299;35.160;26.100;2023-04-01T07:01:09;101216.72;;;20.10;100.00
56402;BME280;42299;35.160;26.100;2023-04-01T07:02:41;101206.84;;;20.12;100.00
56402;BME280;42299;35.160;26.100;2023-04-01T07:04:06;101219.34;;;20.15;100.00
56402;BME280;42299;35.160;26.100;2023-04-01T07:05:33;101208.53;;;20.19;100.00
56402;BME280;42299;35.160;26.100;2023-04-01T07:06:58;101214.66;;;20.27;100.00
56402;BME280;42299;35.160;26.100;2023-04-01T07:08:25;101222.56;;;20.35;100.00
56402;BME280;42299;35.160;26.100;2023-04-01T07:09:53;101222.44;;;20.43;100.00
56402;BME280;42299;35.160;26.100;2023-04-01T07:11:27;101219.63;;;20.50;100.00
56402;BME280;42299;35.160;26.100;2023-04-01T07:13:22;101227.41;;;20.65;100.00
56402;BME280;42299;35.160;26.100;2023-04-01T07:14:53;101226.31;;;20.76;100.00
56402;BME280;42299;35.160;26.100;2023-04-01T07:16:20;101227.03;;;20.85;100.00
56402;BME280;42299;35.160;26.100;2023-04-01T07:17:53;101237.69;;;20.90;100.00
56402;BME280;42299;35.160;26.100;2023-04-01T07:19:22;101231.50;;;20.86;100.00
56402;BME280;42299;35.160;26.100;2023-04-01T07:21:01;101224.25;;;20.91;100.00
56402;BME280;42299;35.160;26.100;2023-04-01T07:22:29;101224.09;;;20.99;100.00
56402;BME280;42299;35.160;26.100;2023-04-01T07:24:15;101223.19;;;21.00;100.00
56402;BME280;42299;35.160;26.100;2023-04-01T07:25:52;101223.09;;;21.04;100.00
56402;BME280;42299;35.160;26.100;2023-04-01T07:27:26;101212.22;;;21.11;100.00
56402;BME280;42299;35.160;26.100;2023-04-01T07:28:51;101244.41;;;21.12;100.00